Time;durP1;ratioP1;P1;durP2;ratioP2;P2;SDS_P1;SDS_P2;PMS_P1;PMS_P2;Temp;Humidity;BMP_temperature;BMP_pressure;BME280_temperature;BME280_humidity;BME280_pressure;Samples;Min_cycle;Max_cycle;Signal;HPM_P1;HPM_P2
2023/01/16 00:00:53;;;;;;;21.75;6.68;;;;;;;-1.53;71.39;99672.13;4876652;29;20092;-43
2023/01/16 00:03:19;;;;;;;18.13;7.05;;;;;;;-1.50;71.31;99655.16;4876704;29;20045;-44
2023/01/16 00:05:45;;;;;;;18.55;6.20;;;;;;;-1.57;71.14;99662.72;4875595;29;20482;-43
2023/01/16 00:08:11;;;;;;;16.88;6.88;;;;;;;-1.80;70.89;99624.16;4876811;29;20040;-44
2023/01/16 00:10:37;;;;;;;19.95;6.18;;;;;;;-1.58;71.45;99650.81;4876699;29;20049;-43
2023/01/16 00:13:03;;;;;;;20.40;7.82;;;;;;;-1.60;71.33;99652.47;4876646;29;20517;-43
2023/01/16 00:15:29;;;;;;;16.70;6.80;;;;;;;-1.63;71.17;99647.34;4872441;29;20083;-44
2023/01/16 00:17:55;;;;;;;14.18;5.93;;;;;;;-1.81;71.37;99618.22;4875318;29;20048;-42
2023/01/16 00:20:21;;;;;;;20.38;7.63;;;;;;;-1.65;71.43;99651.56;4875364;29;20474;-44
2023/01/16 00:22:47;;;;;;;15.85;5.57;;;;;;;-1.64;71.56;99633.75;4876577;29;20492;-42
2023/01/16 00:25:13;;;;;;;12.70;5.35;;;;;;;-1.61;71.39;99626.13;4875154;29;20041;-43
2023/01/16 00:27:39;;;;;;;13.38;6.20;;;;;;;-1.58;71.39;99623.63;4876042;29;20077;-45
2023/01/16 00:30:06;;;;;;;13.52;5.13;;;;;;;-1.61;71.10;99638.88;4875018;29;20059;-44
2023/01/16 00:32:33;;;;;;;18.45;6.82;;;;;;;-1.64;71.59;99622.69;4872457;29;20743;-44
2023/01/16 00:34:59;;;;;;;16.40;6.57;;;;;;;-1.60;71.61;99616.78;4858066;29;20045;-44
2023/01/16 00:37:24;;;;;;;16.67;6.22;;;;;;;-1.60;71.55;99616.78;4873198;29;20059;-43
2023/01/16 00:39:53;;;;;;;10.05;5.07;;;;;;;-1.60;71.61;99630.41;4874328;29;20505;-43
2023/01/16 00:42:19;;;;;;;14.93;5.03;;;;;;;-1.82;71.57;99596.13;4874314;29;20132;-43
2023/01/16 00:44:45;;;;;;;20.17;7.20;;;;;;;-1.71;71.74;99616.66;4857822;29;20290;-42
2023/01/16 00:47:11;;;;;;;20.52;5.57;;;;;;;-1.72;71.79;99620.88;4874468;29;20509;-45
2023/01/16 00:49:37;;;;;;;16.35;6.97;;;;;;;-1.65;71.83;99614.19;4875771;29;20036;-44
2023/01/16 00:52:03;;;;;;;11.18;5.85;;;;;;;-1.64;71.91;99610.81;4876181;29;20475;-44
2023/01/16 00:54:29;;;;;;;13.48;6.72;;;;;;;-1.71;71.83;99611.56;4876194;29;20103;-43
2023/01/16 00:56:55;;;;;;;17.60;7.63;;;;;;;-1.74;71.81;99614.94;4875979;29;20107;-43
2023/01/16 00:59:21;;;;;;;14.52;6.22;;;;;;;-1.72;72.08;99608.16;4874607;29;20045;-43
2023/01/16 01:01:47;;;;;;;23.88;7.47;;;;;;;-2.04;72.13;99565.25;4875911;29;20044;-43
2023/01/16 01:04:13;;;;;;;21.23;6.68;;;;;;;-1.81;72.46;99602.94;4874377;29;20581;-41
2023/01/16 01:06:39;;;;;;;19.35;7.00;;;;;;;-1.82;72.53;99595.25;4875686;29;20540;-43
2023/01/16 01:09:05;;;;;;;16.25;6.45;;;;;;;-1.79;72.57;99596.19;4874655;29;20040;-43
2023/01/16 01:11:31;;;;;;;18.52;7.25;;;;;;;-1.78;72.57;99584.28;4905906;29;20044;-43
2023/01/16 01:13:57;;;;;;;14.30;5.72;;;;;;;-1.75;72.45;99602.16;4875808;29;20033;-44
2023/01/16 01:16:23;;;;;;;15.63;6.15;;;;;;;-1.77;72.56;99591.06;4858921;29;20040;-42
2023/01/16 01:18:49;;;;;;;11.80;4.40;;;;;;;-1.78;72.68;99597.03;4875716;29;20501;-46
2023/01/16 01:21:15;;;;;;;21.77;7.55;;;;;;;-1.82;73.00;99580.84;4875547;29;20057;-44
2023/01/16 01:23:41;;;;;;;24.05;6.53;;;;;;;-1.76;73.07;99587.69;4875592;29;20040;-43
2023/01/16 01:26:13;;;;;;;22.40;8.30;;;;;;;-1.81;72.77;99582.53;4875324;29;20536;-43
2023/01/16 01:28:39;;;;;;;16.75;7.68;;;;;;;-1.78;73.01;99574.09;4873989;29;20136;-43
2023/01/16 01:31:06;;;;;;;21.02;6.20;;;;;;;-1.79;72.51;99565.59;4872581;29;20045;-44
2023/01/16 01:33:33;;;;;;;19.77;7.45;;;;;;;-1.76;72.99;99565.63;4875568;29;20052;-43
2023/01/16 01:35:58;;;;;;;20.35;8.02;;;;;;;-1.91;72.65;99536.56;4875317;29;20524;-44
2023/01/16 01:38:24;;;;;;;16.48;6.97;;;;;;;-1.81;72.90;99558.75;4874784;29;20069;-45
2023/01/16 01:40:50;;;;;;;14.85;5.50;;;;;;;-2.11;73.11;99507.41;4875322;29;20128;-44
2023/01/16 01:43:16;;;;;;;21.63;7.72;;;;;;;-1.82;73.26;99551.94;4874007;29;20041;-42
2023/01/16 01:45:46;;;;;;;23.48;7.60;;;;;;;-1.84;73.10;99543.44;4872069;29;20525;-42
2023/01/16 01:48:12;;;;;;;11.18;6.05;;;;;;;-1.83;73.29;99542.59;4856600;29;20041;-42
2023/01/16 01:50:47;;;;;;;13.70;6.45;;;;;;;-2.00;73.61;99518.59;4855296;29;20051;-43
2023/01/16 01:53:28;;;;;;;23.08;7.80;;;;;;;-1.88;73.66;99539.13;4856453;29;20065;-43
2023/01/16 01:55:54;;;;;;;19.25;7.35;;;;;;;-1.89;73.83;99535.75;4855427;29;20471;-43
2023/01/16 01:58:22;;;;;;;15.13;7.05;;;;;;;-2.09;73.72;99491.31;4856591;29;20082;-45
2023/01/16 02:00:54;;;;;;;13.40;6.45;;;;;;;-1.94;74.09;99528.88;4856611;29;20074;-44
2023/01/16 02:03:25;;;;;;;20.73;7.47;;;;;;;-1.97;74.26;99539.00;4855033;29;20178;-43
2023/01/16 02:05:53;;;;;;;20.52;7.10;;;;;;;-1.99;74.32;99543.25;4854884;29;20041;-44
2023/01/16 02:08:22;;;;;;;19.48;5.93;;;;;;;-1.99;74.47;99533.06;4856327;29;20561;-44
2023/01/16 02:10:51;;;;;;;22.95;7.07;;;;;;;-1.98;74.72;99522.88;4856518;29;20045;-42
2023/01/16 02:13:17;;;;;;;20.75;5.78;;;;;;;-1.97;74.65;99532.22;4855041;29;20085;-46
2023/01/16 02:21:36;;;;;;;21.85;7.53;;;;;;;-1.99;74.94;99528.78;4866711;29;20037;-43
2023/01/16 02:24:26;;;;;;;15.23;5.45;;;;;;;-1.96;74.87;99523.75;4873631;29;20045;-49
2023/01/16 02:27:06;;;;;;;13.43;5.45;;;;;;;-2.06;75.04;99515.97;4858040;29;20426;-43
2023/01/16 02:29:49;;;;;;;17.17;7.20;;;;;;;-2.13;75.46;99518.44;4874618;29;20136;-44
2023/01/16 02:32:46;;;;;;;20.73;6.90;;;;;;;-2.14;75.29;99519.25;4873543;29;20096;-43
2023/01/16 02:35:15;;;;;;;13.82;4.93;;;;;;;-2.12;75.77;99526.94;4874852;29;20033;-43
2023/01/16 02:38:27;;;;;;;21.10;5.87;;;;;;;-2.13;76.00;99522.66;4874724;29;20127;-43
2023/01/16 02:41:06;;;;;;;18.10;6.80;;;;;;;-2.18;76.04;99514.13;4904562;29;20292;-43
2023/01/16 02:43:40;;;;;;;18.45;6.38;;;;;;;-2.18;75.95;99501.38;4873688;29;20068;-43
2023/01/16 02:46:06;;;;;;;23.92;7.43;;;;;;;-2.10;76.12;99504.03;4873537;29;20414;-42
2023/01/16 02:48:46;;;;;;;25.92;6.30;;;;;;;-2.09;75.98;99498.94;4874570;29;20052;-45
2023/01/16 02:51:23;;;;;;;17.25;5.68;;;;;;;-2.32;76.22;99449.44;4876252;29;20044;-43
2023/01/16 02:54:10;;;;;;;14.70;6.15;;;;;;;-2.01;75.94;99499.91;4878045;29;20173;-46
2023/01/16 02:56:58;;;;;;;27.38;6.93;;;;;;;-2.01;76.06;99487.19;4877298;29;20470;-42
2023/01/16 02:59:24;;;;;;;26.40;8.15;;;;;;;-1.96;75.93;99498.28;4908061;29;20045;-44
2023/01/16 03:01:51;;;;;;;14.65;6.35;;;;;;;-2.02;75.82;99508.38;4876848;29;20052;-43
2023/01/16 03:04:38;;;;;;;14.85;4.60;;;;;;;-2.10;75.97;99510.00;4907821;29;20057;-44
2023/01/16 03:07:15;;;;;;;13.50;5.68;;;;;;;-2.13;76.08;99492.09;4877965;29;20513;-44
2023/01/16 03:09:46;;;;;;;19.20;6.85;;;;;;;-2.13;76.07;99487.88;4876769;29;20410;-44
2023/01/16 03:12:37;;;;;;;13.27;5.72;;;;;;;-2.14;76.18;99492.94;4878013;29;20513;-43
2023/01/16 03:15:13;;;;;;;23.85;6.80;;;;;;;-2.14;76.37;99477.66;4876620;29;20125;-45
2023/01/16 03:17:51;;;;;;;13.95;6.47;;;;;;;-2.06;76.23;99482.88;4876719;29;20044;-46
2023/01/16 03:20:40;;;;;;;22.65;6.75;;;;;;;-2.01;76.29;99477.00;4876493;29;20055;-46
2023/01/16 03:23:14;;;;;;;19.27;5.18;;;;;;;-1.98;76.08;99478.72;4864254;29;20624;-43
2023/01/16 03:25:55;;;;;;;17.58;5.25;;;;;;;-2.00;75.75;99483.81;4842599;29;20073;-43
2023/01/16 03:28:21;;;;;;;13.50;4.80;;;;;;;-2.00;75.98;99483.81;4857665;29;20065;-43
2023/01/16 03:30:59;;;;;;;12.73;5.45;;;;;;;-2.02;75.96;99492.25;4856607;29;20067;-49
2023/01/16 03:33:34;;;;;;;23.58;5.50;;;;;;;-2.22;75.77;99456.34;4876182;29;20056;-44
2023/01/16 03:36:29;;;;;;;16.13;5.07;;;;;;;-2.29;75.84;99436.72;4860663;29;20045;-45
2023/01/16 03:38:55;;;;;;;15.90;5.57;;;;;;;-2.04;75.92;99483.75;4876193;29;20505;-44
2023/01/16 03:41:24;;;;;;;16.98;6.32;;;;;;;-2.02;75.82;99484.63;4876100;29;20041;-43
2023/01/16 03:43:51;;;;;;;23.45;7.53;;;;;;;-2.33;76.07;99433.31;4877175;29;20048;-43
2023/01/16 03:46:22;;;;;;;27.42;7.68;;;;;;;-1.96;75.79;99492.34;4876038;29;20053;-44
2023/01/16 03:48:58;;;;;;;13.90;5.43;;;;;;;-1.93;75.57;99477.06;4877219;29;20045;-44
2023/01/16 03:51:26;;;;;;;17.27;6.13;;;;;;;-1.99;75.59;99487.22;4877180;29;20041;-44
2023/01/16 03:54:23;;;;;;;24.60;5.68;;;;;;;-2.21;75.54;99443.66;4906808;29;20594;-44
2023/01/16 03:57:29;;;;;;;16.95;6.72;;;;;;;-2.06;75.52;99471.00;4860261;29;20124;-43
2023/01/16 03:59:57;;;;;;;15.73;6.07;;;;;;;-2.03;75.41;99472.72;4876398;29;20140;-49
2023/01/16 04:02:40;;;;;;;19.27;6.32;;;;;;;-1.97;75.58;99488.94;4876276;29;20055;-44
2023/01/16 04:05:25;;;;;;;17.48;7.03;;;;;;;-2.01;75.63;99474.44;4859297;29;20521;-42
2023/01/16 04:07:53;;;;;;;24.58;6.20;;;;;;;-1.99;75.43;99472.75;4873709;29;20049;-43
2023/01/16 04:10:26;;;;;;;18.48;6.30;;;;;;;-1.95;75.32;99459.25;4873562;29;20136;-44
2023/01/16 04:13:02;;;;;;;16.05;5.38;;;;;;;-1.92;75.21;99464.38;4875476;29;20123;-43
2023/01/16 04:15:32;;;;;;;12.10;5.72;;;;;;;-2.00;75.11;99470.22;4875177;29;20041;-43
2023/01/16 04:17:59;;;;;;;22.08;6.72;;;;;;;-2.04;75.25;99453.19;4875551;29;20505;-42
2023/01/16 04:20:26;;;;;;;18.05;6.63;;;;;;;-2.02;75.33;99464.22;4875883;29;20047;-44
2023/01/16 04:22:52;;;;;;;22.23;7.35;;;;;;;-1.98;75.37;99453.25;4875310;29;20052;-45
2023/01/16 04:25:18;;;;;;;17.77;6.50;;;;;;;-1.99;75.02;99449.00;4876602;29;20493;-42
2023/01/16 04:27:44;;;;;;;15.77;6.07;;;;;;;-2.11;75.10;99421.69;4870452;29;20089;-44
2023/01/16 04:30:11;;;;;;;24.42;6.28;;;;;;;-2.19;75.20;99423.28;4858913;29;20089;-43
2023/01/16 04:32:37;;;;;;;21.33;6.07;;;;;;;-2.03;75.13;99447.22;4890197;29;20041;-45
2023/01/16 04:35:04;;;;;;;18.23;5.45;;;;;;;-2.07;75.06;99451.44;4881795;29;20044;-44
2023/01/16 04:37:30;;;;;;;17.75;5.15;;;;;;;-2.08;75.24;99447.19;4873756;29;20160;-43
2023/01/16 04:39:56;;;;;;;20.15;5.60;;;;;;;-2.07;75.25;99459.09;4889745;29;20580;-50
2023/01/16 04:42:21;;;;;;;18.60;7.00;;;;;;;-2.27;75.24;99418.09;4878602;29;20049;-42
2023/01/16 04:44:47;;;;;;;29.80;7.25;;;;;;;-2.09;75.26;99453.09;4884453;29;20057;-42
2023/01/16 04:47:13;;;;;;;18.98;5.78;;;;;;;-2.08;75.34;99447.19;4890722;29;20063;-43
2023/01/16 04:49:39;;;;;;;18.35;5.43;;;;;;;-2.08;75.19;99454.81;4893318;29;20032;-42
2023/01/16 04:52:05;;;;;;;17.25;5.53;;;;;;;-2.12;75.03;99442.91;4886854;29;20048;-43
2023/01/16 04:54:31;;;;;;;24.70;5.97;;;;;;;-2.12;75.24;99437.81;4882274;29;20053;-43
2023/01/16 04:56:57;;;;;;;18.45;7.03;;;;;;;-2.11;75.30;99456.50;4883944;29;20528;-43
2023/01/16 04:59:23;;;;;;;22.05;7.15;;;;;;;-2.14;75.24;99435.22;4884906;29;20486;-43
2023/01/16 05:01:49;;;;;;;15.88;4.55;;;;;;;-2.09;75.50;99437.00;4883321;29;20405;-43
2023/01/16 05:04:15;;;;;;;20.23;4.70;;;;;;;-2.11;75.06;99448.84;4873716;29;20044;-43
2023/01/16 05:06:41;;;;;;;20.70;6.30;;;;;;;-2.10;75.30;99436.16;4873686;29;20045;-42
2023/01/16 05:09:09;;;;;;;17.67;5.80;;;;;;;-2.06;75.13;99424.28;4875043;29;20061;-43
2023/01/16 05:11:35;;;;;;;19.73;5.97;;;;;;;-2.11;75.27;99436.13;4857474;29;20203;-43
2023/01/16 05:14:01;;;;;;;17.98;5.95;;;;;;;-2.15;75.18;99419.97;4872827;29;20044;-44
2023/01/16 05:16:28;;;;;;;12.25;5.60;;;;;;;-2.14;75.21;99427.59;4860189;29;20053;-43
2023/01/16 05:18:53;;;;;;;16.77;6.13;;;;;;;-2.10;75.40;99427.66;4870595;29;20053;-42
2023/01/16 05:21:19;;;;;;;17.58;6.45;;;;;;;-1.99;75.19;99433.72;4874919;29;20049;-43
2023/01/16 05:23:45;;;;;;;12.13;5.05;;;;;;;-2.31;75.03;99370.53;4875165;29;20043;-45
2023/01/16 05:26:12;;;;;;;16.33;5.15;;;;;;;-2.04;74.87;99426.00;4875016;29;20043;-49
2023/01/16 05:28:38;;;;;;;18.95;6.22;;;;;;;-1.96;75.03;99424.41;4877146;29;20597;-43
2023/01/16 05:31:04;;;;;;;15.27;4.57;;;;;;;-2.01;74.71;99423.50;4876731;29;20076;-44
2023/01/16 05:33:30;;;;;;;16.55;5.47;;;;;;;-2.04;74.85;99431.09;4893959;29;20044;-42
2023/01/16 05:35:56;;;;;;;16.33;5.22;;;;;;;-2.07;75.06;99425.97;4875916;29;20044;-43
2023/01/16 05:38:22;;;;;;;20.95;6.55;;;;;;;-2.09;75.00;99409.81;4874345;29;20592;-44
2023/01/16 05:40:48;;;;;;;17.60;6.10;;;;;;;-2.46;74.99;99361.88;4874211;29;20052;-44
2023/01/16 05:43:14;;;;;;;21.35;5.78;;;;;;;-2.03;75.17;99424.31;4874536;29;20532;-43
2023/01/16 05:45:41;;;;;;;29.20;7.07;;;;;;;-2.17;75.17;99391.06;4873613;29;20164;-44
2023/01/16 05:48:06;;;;;;;16.20;5.00;;;;;;;-1.95;75.04;99428.69;4875159;29;20050;-44
2023/01/16 05:50:32;;;;;;;30.17;6.22;;;;;;;-2.03;74.98;99427.72;4875180;29;20590;-44
2023/01/16 05:52:58;;;;;;;21.88;6.05;;;;;;;-2.01;75.05;99433.69;4874894;29;20144;-44
2023/01/16 05:55:24;;;;;;;15.65;5.85;;;;;;;-2.03;75.31;99426.84;4874805;29;20051;-44
2023/01/16 05:57:51;;;;;;;15.57;5.72;;;;;;;-2.00;75.26;99430.31;4858207;29;20036;-43
2023/01/16 06:00:17;;;;;;;28.85;6.47;;;;;;;-2.00;75.23;99447.28;4875114;29;20626;-45
2023/01/16 06:02:44;;;;;;;24.30;6.75;;;;;;;-2.05;75.05;99426.00;4904792;29;20040;-44
2023/01/16 06:05:10;;;;;;;16.63;5.78;;;;;;;-2.04;75.15;99445.56;4873623;29;20135;-43
2023/01/16 06:07:36;;;;;;;22.35;6.88;;;;;;;-2.15;75.28;99438.59;4873163;29;20503;-43
2023/01/16 06:10:02;;;;;;;10.15;4.40;;;;;;;-2.13;75.19;99436.09;4874921;29;20535;-43
2023/01/16 06:12:31;;;;;;;20.17;6.13;;;;;;;-2.17;75.53;99442.00;4874993;29;20041;-43
2023/01/16 06:14:58;;;;;;;19.00;6.07;;;;;;;-2.37;75.48;99392.53;4873424;29;20510;-44
2023/01/16 06:17:24;;;;;;;19.58;7.15;;;;;;;-2.16;75.67;99418.25;4874426;29;20193;-43
2023/01/16 06:19:49;;;;;;;18.23;5.65;;;;;;;-2.11;75.74;99418.28;4874591;29;20049;-43
2023/01/16 06:22:15;;;;;;;20.08;4.72;;;;;;;-2.13;75.28;99431.84;4873289;29;20492;-45
2023/01/16 06:24:41;;;;;;;21.13;6.05;;;;;;;-2.20;75.42;99426.69;4875321;29;20052;-44
2023/01/16 06:27:07;;;;;;;9.75;3.58;;;;;;;-2.18;75.56;99441.13;4878409;29;20509;-45
2023/01/16 06:29:33;;;;;;;21.45;5.78;;;;;;;-2.18;75.53;99427.53;4860405;29;20517;-45
2023/01/16 06:31:59;;;;;;;29.95;7.05;;;;;;;-2.18;75.38;99437.72;4827724;29;20536;-44
2023/01/16 06:34:25;;;;;;;20.10;5.45;;;;;;;-2.15;75.20;99430.13;4859865;29;20049;-43
2023/01/16 06:36:51;;;;;;;22.85;6.93;;;;;;;-2.18;75.07;99432.63;4859625;29;20407;-44
2023/01/16 06:39:17;;;;;;;25.13;4.93;;;;;;;-2.18;75.07;99419.91;4859568;29;20196;-42
2023/01/16 06:41:43;;;;;;;24.65;5.97;;;;;;;-2.19;75.06;99419.03;4859674;29;20042;-44
2023/01/16 06:44:09;;;;;;;12.23;4.72;;;;;;;-2.10;75.02;99428.50;4859553;29;20502;-45
2023/01/16 06:46:35;;;;;;;11.68;4.82;;;;;;;-2.09;74.60;99432.72;4888949;29;20060;-45
2023/01/16 06:49:01;;;;;;;19.33;4.85;;;;;;;-2.09;74.43;99439.56;4859638;29;20105;-44
2023/01/16 06:51:27;;;;;;;11.32;4.13;;;;;;;-2.33;74.45;99414.63;4859468;29;20072;-42
2023/01/16 06:53:53;;;;;;;19.42;5.43;;;;;;;-2.18;74.36;99435.19;4859299;29;20060;-44
2023/01/16 06:56:19;;;;;;;19.90;5.65;;;;;;;-2.16;74.23;99447.09;4859327;29;20041;-43
2023/01/16 06:58:45;;;;;;;22.38;5.18;;;;;;;-2.10;74.32;99437.84;4858274;29;20348;-43
2023/01/16 07:01:10;;;;;;;16.50;5.45;;;;;;;-2.09;74.14;99435.28;4857854;29;20048;-44
2023/01/16 07:03:36;;;;;;;13.55;5.50;;;;;;;-2.08;73.69;99436.13;4857704;29;20042;-44
2023/01/16 07:06:03;;;;;;;22.98;5.60;;;;;;;-2.01;73.58;99440.47;4870188;29;20040;-45
2023/01/16 07:08:29;;;;;;;14.80;4.75;;;;;;;-2.00;73.48;99444.75;4876495;29;20045;-43
2023/01/16 07:10:59;;;;;;;20.42;5.88;;;;;;;-1.97;73.11;99439.66;4877775;29;20227;-43
2023/01/16 07:13:28;;;;;;;13.75;4.55;;;;;;;-1.95;73.19;99438.88;4876727;29;20037;-43
2023/01/16 07:24:13;;;;;;;23.40;6.07;;;;;;;-2.02;72.97;99439.63;4876093;29;20080;-44
2023/01/16 07:26:41;;;;;;;12.95;5.13;;;;;;;-2.05;72.86;99437.06;4875787;29;20049;-43
2023/01/16 07:29:08;;;;;;;14.13;4.50;;;;;;;-2.06;73.18;99442.97;4876295;29;20119;-43
2023/01/16 07:31:34;;;;;;;13.40;5.47;;;;;;;-2.02;72.95;99436.22;4858680;29;20045;-44
2023/01/16 07:34:00;;;;;;;14.77;3.97;;;;;;;-1.98;72.73;99440.50;4857507;29;20438;-46
2023/01/16 07:36:25;;;;;;;11.77;4.38;;;;;;;-2.03;72.44;99447.22;4857842;29;20041;-46
2023/01/16 07:38:51;;;;;;;16.08;4.03;;;;;;;-2.16;72.54;99436.91;4858456;29;20380;-46
2023/01/16 07:41:17;;;;;;;17.10;5.05;;;;;;;-2.18;72.78;99428.41;4858630;29;20058;-44
2023/01/16 07:43:43;;;;;;;16.73;5.55;;;;;;;-2.14;72.67;99437.78;4858539;29;20522;-44
2023/01/16 07:46:09;;;;;;;20.95;5.25;;;;;;;-2.18;72.85;99423.31;4858627;29;20041;-45
2023/01/16 07:48:35;;;;;;;12.10;3.88;;;;;;;-2.21;72.41;99435.16;4858507;29;20046;-44
2023/01/16 07:51:01;;;;;;;14.50;5.35;;;;;;;-2.20;72.63;99436.88;4858568;29;20047;-44
2023/01/16 07:53:28;;;;;;;11.02;4.15;;;;;;;-2.27;72.61;99441.03;4858610;29;20068;-47
2023/01/16 07:55:58;;;;;;;13.48;5.40;;;;;;;-2.28;72.73;99435.91;4858517;29;20048;-47
2023/01/16 07:58:24;;;;;;;20.80;5.63;;;;;;;-2.26;72.66;99445.28;4858776;29;20037;-44
2023/01/16 08:00:54;;;;;;;15.05;5.00;;;;;;;-2.27;72.66;99429.97;4858261;29;20121;-42
2023/01/16 08:03:21;;;;;;;13.35;4.65;;;;;;;-2.23;72.70;99439.34;4858478;29;20056;-44
2023/01/16 08:05:49;;;;;;;17.38;4.70;;;;;;;-2.24;72.43;99440.19;4867168;29;20040;-43
2023/01/16 08:08:16;;;;;;;6.88;3.25;;;;;;;-2.20;72.52;99442.78;4876714;29;20611;-45
2023/01/16 08:10:42;;;;;;;10.85;4.43;;;;;;;-2.25;72.50;99446.97;4876722;29;20052;-45
2023/01/16 08:13:08;;;;;;;15.70;4.97;;;;;;;-2.21;72.71;99458.94;4876882;29;20106;-44
2023/01/16 08:15:34;;;;;;;8.95;3.83;;;;;;;-2.41;72.45;99411.13;4876512;29;20515;-44
2023/01/16 08:18:00;;;;;;;15.95;4.63;;;;;;;-2.52;72.77;99395.72;4876247;29;20037;-44
2023/01/16 08:20:26;;;;;;;10.88;4.18;;;;;;;-2.28;72.91;99438.44;4876573;29;20053;-44
2023/01/16 08:22:52;;;;;;;11.27;4.57;;;;;;;-2.32;72.79;99459.63;4876338;29;20049;-42
2023/01/16 08:25:22;;;;;;;14.25;4.47;;;;;;;-2.28;72.82;99448.63;4876432;29;20047;-44
2023/01/16 08:27:48;;;;;;;9.07;3.42;;;;;;;-2.36;72.98;99443.47;4871477;29;20540;-44
2023/01/16 08:30:15;;;;;;;10.85;4.10;;;;;;;-2.34;73.12;99443.44;4856492;29;20045;-43
2023/01/16 08:32:42;;;;;;;12.15;5.40;;;;;;;-2.34;73.32;99458.72;4857678;29;20049;-44
2023/01/16 08:35:09;;;;;;;13.02;4.75;;;;;;;-2.33;73.21;99432.44;4857733;29;20724;-43
2023/01/16 08:37:35;;;;;;;16.50;4.82;;;;;;;-2.26;73.05;99434.25;4857989;29;20048;-45
2023/01/16 08:40:01;;;;;;;13.15;5.00;;;;;;;-2.11;73.04;99447.16;4857544;29;20045;-43
2023/01/16 08:53:37;;;;;;;22.15;6.40;;;;;;;-2.40;73.07;99438.28;4857434;29;20068;-43
2023/01/16 08:56:04;;;;;;;15.13;4.90;;;;;;;-2.42;73.03;99429.78;4857542;29;20071;-42
2023/01/16 08:58:30;;;;;;;14.02;4.60;;;;;;;-2.42;73.21;99433.19;4857720;29;20125;-44
2023/01/16 09:00:56;;;;;;;16.95;6.13;;;;;;;-2.30;73.08;99428.22;4857641;29;20124;-45
2023/01/16 09:03:22;;;;;;;17.73;4.75;;;;;;;-2.25;73.07;99431.69;4857296;29;20137;-43
2023/01/16 09:05:48;;;;;;;18.08;5.70;;;;;;;-2.29;72.94;99432.50;4865044;29;20051;-46
2023/01/16 09:08:14;;;;;;;14.95;5.03;;;;;;;-2.22;72.96;99413.06;4875845;29;20045;-46
2023/01/16 09:13:48;;;;;;;11.35;4.03;;;;;;;-2.18;73.01;99415.66;4875747;29;20041;-43
2023/01/16 09:16:10;;;;;;;14.68;4.97;;;;;;;-2.10;73.05;99412.38;4875374;29;20559;-42
2023/01/16 09:18:36;;;;;;;16.90;5.07;;;;;;;-2.21;72.79;99424.97;4874938;29;20056;-44
2023/01/16 09:21:02;;;;;;;10.70;4.20;;;;;;;-2.26;72.87;99412.19;4875294;29;20093;-44
2023/01/16 09:23:28;;;;;;;19.83;5.28;;;;;;;-2.24;73.42;99410.50;4875110;29;20048;-43
2023/01/16 09:25:54;;;;;;;8.52;3.60;;;;;;;-2.20;73.20;99411.41;4875166;29;20048;-45
2023/01/16 09:28:20;;;;;;;17.13;4.15;;;;;;;-2.47;73.37;99395.78;4895762;29;20046;-43
2023/01/16 09:30:46;;;;;;;13.38;4.72;;;;;;;-2.28;73.80;99415.53;4856588;29;20064;-44
2023/01/16 09:33:12;;;;;;;9.82;3.63;;;;;;;-2.29;73.29;99411.28;4886418;29;20042;-44
2023/01/16 09:35:38;;;;;;;12.55;3.88;;;;;;;-2.25;73.42;99398.59;4886269;29;20575;-43
2023/01/16 09:38:04;;;;;;;9.43;4.25;;;;;;;-2.28;73.69;99393.47;4856713;29;20048;-42
2023/01/16 09:40:30;;;;;;;12.90;4.32;;;;;;;-2.23;73.87;99396.06;4856763;29;20049;-43
2023/01/16 09:43:40;;;;;;;13.10;4.22;;;;;;;-2.18;73.72;99394.44;4855512;29;20125;-44
2023/01/16 09:46:13;;;;;;;14.13;3.55;;;;;;;-2.22;73.62;99401.19;4855537;29;20421;-45
2023/01/16 09:48:56;;;;;;;10.23;4.00;;;;;;;-2.27;74.10;99386.69;4855512;29;20052;-43
2023/01/16 09:51:36;;;;;;;10.43;3.67;;;;;;;-2.38;74.48;99360.25;4855367;29;20109;-48
2023/01/16 09:59:54;;;;;;;21.35;5.10;;;;;;;-2.17;74.73;99365.59;4855046;29;20033;-43
2023/01/16 10:02:30;;;;;;;8.18;3.72;;;;;;;-2.22;74.84;99370.66;4885876;29;20045;-43
2023/01/16 10:04:57;;;;;;;12.18;4.50;;;;;;;-2.19;75.19;99370.66;4856154;29;20041;-42
2023/01/16 10:07:32;;;;;;;10.70;4.30;;;;;;;-2.14;75.23;99371.56;4874935;29;20033;-43
2023/01/16 10:10:29;;;;;;;9.57;4.53;;;;;;;-2.18;75.40;99357.09;4874932;29;20060;-45
2023/01/16 10:13:25;;;;;;;8.35;3.28;;;;;;;-2.17;75.48;99355.41;4866816;29;20786;-42
2023/01/16 10:16:00;;;;;;;17.30;5.55;;;;;;;-2.13;75.49;99357.16;4865263;29;20057;-42
2023/01/16 10:18:37;;;;;;;17.95;4.57;;;;;;;-2.08;75.45;99360.59;4874738;29;20056;-44
2023/01/16 10:21:27;;;;;;;17.30;4.85;;;;;;;-2.05;75.28;99368.28;4873629;29;20055;-43
2023/01/16 10:24:02;;;;;;;9.07;3.90;;;;;;;-2.07;75.42;99364.84;4874457;29;20068;-44
2023/01/16 10:26:31;;;;;;;9.52;3.17;;;;;;;-1.97;75.18;99358.16;4857600;29;20060;-43
2023/01/16 10:28:59;;;;;;;10.30;4.17;;;;;;;-1.98;75.21;99353.91;4891088;29;20097;-44
2023/01/16 10:31:40;;;;;;;13.37;4.37;;;;;;;-1.97;75.24;99348.84;4856136;29;20282;-44
2023/01/16 10:34:14;;;;;;;13.88;5.25;;;;;;;-1.90;75.11;99342.97;4854822;29;20282;-45
2023/01/16 10:36:43;;;;;;;10.52;4.93;;;;;;;-1.84;75.07;99355.78;4855813;29;20037;-45
2023/01/16 10:39:11;;;;;;;10.45;4.50;;;;;;;-1.79;74.89;99346.47;4854879;29;20041;-51
2023/01/16 10:50:13;;;;;;;13.32;4.65;;;;;;;-1.67;74.08;99345.72;4856089;29;20066;-44
2023/01/16 10:52:40;;;;;;;10.23;4.35;;;;;;;-1.71;74.26;99339.75;4854419;29;20050;-42
2023/01/16 10:55:07;;;;;;;12.02;3.42;;;;;;;-1.65;74.57;99355.94;4870218;29;20133;-43
2023/01/16 10:57:33;;;;;;;9.32;4.57;;;;;;;-1.68;74.30;99346.59;4856081;29;20037;-44
2023/01/16 11:00:15;;;;;;;12.98;4.07;;;;;;;-1.83;74.34;99323.47;4854364;29;20056;-46
2023/01/16 11:02:43;;;;;;;12.38;4.90;;;;;;;-1.73;74.39;99331.22;4854445;29;20045;-45
2023/01/16 11:05:32;;;;;;;13.15;5.13;;;;;;;-1.65;74.15;99335.53;4856671;29;20041;-44
2023/01/16 11:08:18;;;;;;;13.05;4.13;;;;;;;-1.63;73.89;99341.53;4857136;29;20049;-46
2023/01/16 11:10:49;;;;;;;14.98;3.85;;;;;;;-1.94;74.08;99290.31;4874196;29;20045;-46
2023/01/16 11:19:17;;;;;;;11.80;4.38;;;;;;;-1.63;74.26;99337.28;4877498;29;20135;-45
2023/01/16 11:21:44;;;;;;;10.32;3.72;;;;;;;-1.63;74.58;99344.94;4877687;29;20047;-43
2023/01/16 11:24:13;;;;;;;13.80;4.78;;;;;;;-1.59;74.82;99343.25;4876288;29;20132;-43
2023/01/16 11:26:39;;;;;;;8.77;3.78;;;;;;;-1.57;74.98;99341.59;4877493;29;20110;-44
2023/01/16 11:29:08;;;;;;;11.13;3.35;;;;;;;-1.58;75.22;99335.63;4862993;29;20467;-43
2023/01/16 11:31:34;;;;;;;12.60;4.53;;;;;;;-1.51;75.20;99327.16;4858934;29;20529;-45
2023/01/16 11:34:11;;;;;;;14.82;5.10;;;;;;;-1.44;75.40;99339.13;4857218;29;20061;-44
2023/01/16 11:36:37;;;;;;;12.10;3.88;;;;;;;-1.44;74.98;99331.47;4858550;29;20083;-43
2023/01/16 11:39:06;;;;;;;9.25;3.65;;;;;;;-1.45;75.21;99342.53;4842042;29;20046;-44
2023/01/16 11:41:37;;;;;;;8.95;3.67;;;;;;;-1.42;75.25;99332.38;4841863;29;20045;-44
2023/01/16 11:46:59;;;;;;;10.73;3.63;;;;;;;-1.42;75.29;99344.25;4858183;29;20182;-43
2023/01/16 11:49:33;;;;;;;7.97;3.70;;;;;;;-1.45;75.29;99339.13;4858170;29;20083;-43
2023/01/16 11:52:03;;;;;;;8.48;2.70;;;;;;;-1.48;75.59;99339.97;4858128;29;20045;-43
2023/01/16 11:54:31;;;;;;;10.07;3.63;;;;;;;-1.44;75.54;99335.72;4856720;29;20053;-44
2023/01/16 11:57:36;;;;;;;8.45;4.05;;;;;;;-1.30;75.32;99332.44;4872409;29;20058;-43
2023/01/16 12:00:20;;;;;;;11.23;4.38;;;;;;;-1.24;75.23;99329.06;4876716;29;20065;-43
2023/01/16 12:02:51;;;;;;;10.48;4.93;;;;;;;-1.24;75.33;99340.97;4872588;29;20445;-45
2023/01/16 12:05:54;;;;;;;9.45;3.72;;;;;;;-1.30;75.19;99347.72;4860483;29;20047;-44
2023/01/16 12:08:30;;;;;;;5.85;3.13;;;;;;;-1.39;75.11;99355.31;4876653;29;20048;-44
2023/01/16 12:11:10;;;;;;;11.85;4.78;;;;;;;-1.38;75.31;99361.28;4876726;29;20045;-44
2023/01/16 12:16:52;;;;;;;9.57;4.10;;;;;;;-1.40;74.95;99342.56;4876639;29;20049;-45
2023/01/16 12:19:47;;;;;;;9.68;3.58;;;;;;;-1.52;74.75;99371.38;4875217;29;20048;-44
2023/01/16 12:22:34;;;;;;;11.40;4.45;;;;;;;-1.60;74.29;99352.59;4876056;29;20052;-45
2023/01/16 12:25:19;;;;;;;14.32;4.65;;;;;;;-1.63;74.57;99346.63;4875524;29;20045;-44
2023/01/16 12:28:17;;;;;;;12.25;4.63;;;;;;;-1.64;74.33;99355.97;4871849;29;20055;-45
2023/01/16 12:31:38;;;;;;;12.50;4.15;;;;;;;-1.74;74.15;99351.63;4840825;29;20053;-44
2023/01/16 12:34:34;;;;;;;15.02;4.20;;;;;;;-1.84;74.06;99360.88;4818710;29;20050;-45
2023/01/16 12:37:06;;;;;;;9.82;4.60;;;;;;;-1.85;74.02;99348.09;4857276;29;20080;-46